createdAt,value
2018-12-12T00:02:26.796Z,-0.10
2018-12-12T00:04:56.542Z,-0.10
2018-12-12T00:07:26.726Z,-0.20
2018-12-12T00:09:56.567Z,-0.20
2018-12-12T00:12:26.496Z,-0.20
2018-12-12T00:14:56.628Z,-0.20
2018-12-12T00:17:26.492Z,-0.20
2018-12-12T00:19:56.367Z,-0.30
2018-12-12T00:22:26.359Z,-0.40
2018-12-12T00:24:56.262Z,-0.30
2018-12-12T00:27:26.109Z,-0.30
2018-12-12T00:29:56.227Z,-0.30
2018-12-12T00:32:26.213Z,-0.30
2018-12-12T00:34:56.268Z,-0.30
2018-12-12T00:37:26.402Z,-0.30
2018-12-12T00:39:56.632Z,-0.30
2018-12-12T00:42:26.647Z,-0.20
2018-12-12T00:44:56.753Z,-0.20
2018-12-12T00:47:26.842Z,-0.20
2018-12-12T00:49:56.892Z,-0.20
2018-12-12T00:52:26.827Z,-0.30
2018-12-12T00:54:56.817Z,-0.30
2018-12-12T00:57:27.073Z,-0.40
2018-12-12T00:59:57.042Z,-0.40
2018-12-12T01:02:26.957Z,-0.40
2018-12-12T01:04:56.902Z,-0.40
2018-12-12T01:07:27.013Z,-0.40
2018-12-12T01:09:57.102Z,-0.40
2018-12-12T01:12:27.191Z,-0.40
2018-12-12T01:14:57.287Z,-0.40
2018-12-12T01:17:27.182Z,-0.50
2018-12-12T01:19:57.187Z,-0.40
2018-12-12T01:22:27.097Z,-0.30
2018-12-12T01:24:57.112Z,-0.40
2018-12-12T01:27:26.860Z,-0.40
2018-12-12T01:29:56.721Z,-0.40
2018-12-12T01:32:26.544Z,-0.50
2018-12-12T01:34:56.502Z,-0.50
2018-12-12T01:37:26.407Z,-0.50
2018-12-12T01:39:56.397Z,-0.40
2018-12-12T01:42:26.282Z,-0.50
2018-12-12T01:44:56.062Z,-0.50
2018-12-12T01:47:25.844Z,-0.50
2018-12-12T01:49:55.962Z,-0.40
2018-12-12T01:52:25.808Z,-0.50
2018-12-12T01:54:55.597Z,-0.50
2018-12-12T01:57:25.488Z,-0.50
2018-12-12T01:59:55.307Z,-0.50
2018-12-12T02:02:25.188Z,-0.60
2018-12-12T02:04:54.933Z,-0.50
2018-12-12T02:07:25.167Z,-0.50
2018-12-12T02:09:55.167Z,-0.50
2018-12-12T02:12:25.007Z,-0.50
2018-12-12T02:14:54.802Z,-0.50
2018-12-12T02:17:24.587Z,-0.50
2018-12-12T02:19:54.368Z,-0.60
2018-12-12T02:22:24.278Z,-0.60
2018-12-12T02:24:54.052Z,-0.60
2018-12-12T02:27:23.958Z,-0.60
2018-12-12T02:29:53.763Z,-0.60
2018-12-12T02:32:23.532Z,-0.50
2018-12-12T02:34:53.379Z,-0.50
2018-12-12T02:37:23.167Z,-0.30
2018-12-12T02:39:52.979Z,-0.10
2018-12-12T02:42:22.982Z,-0.10
2018-12-12T02:44:52.867Z,0.00
2018-12-12T02:47:22.744Z,0.10
2018-12-12T02:49:52.532Z,0.10
2018-12-12T02:52:22.522Z,-0.20
2018-12-12T02:54:52.542Z,-0.50
2018-12-12T02:57:22.397Z,-0.40
2018-12-12T02:59:52.172Z,-0.30
2018-12-12T03:02:21.947Z,-0.30
2018-12-12T03:04:51.833Z,-0.40
2018-12-12T03:07:21.776Z,-0.50
2018-12-12T03:09:51.907Z,-0.30
2018-12-12T03:12:21.832Z,-0.30
2018-12-12T03:14:51.682Z,-0.40
2018-12-12T03:17:21.532Z,-0.40
2018-12-12T03:19:51.348Z,-0.60
2018-12-12T03:22:21.088Z,-0.50
2018-12-12T03:24:50.983Z,-0.50
2018-12-12T03:27:20.898Z,-0.60
2018-12-12T03:29:50.929Z,-0.60
2018-12-12T03:32:20.701Z,-0.60
2018-12-12T03:34:50.788Z,-0.50
2018-12-12T03:37:20.598Z,-0.50
2018-12-12T03:39:50.642Z,-0.60
2018-12-12T03:42:20.452Z,-0.70
2018-12-12T03:44:50.508Z,-0.70
2018-12-12T03:47:20.422Z,-0.60
2018-12-12T03:49:50.383Z,-0.50
2018-12-12T03:52:20.284Z,-0.50
2018-12-12T03:54:50.232Z,-0.40
2018-12-12T03:57:20.043Z,-0.30
2018-12-12T03:59:49.892Z,-0.40
2018-12-12T04:02:19.749Z,-0.50
2018-12-12T04:04:49.497Z,-0.60
2018-12-12T04:07:19.303Z,-0.70
2018-12-12T04:09:49.098Z,-0.60
2018-12-12T04:12:18.897Z,-0.50
2018-12-12T04:14:48.693Z,-0.50
2018-12-12T04:17:18.507Z,-0.50
2018-12-12T04:19:48.419Z,-0.40
2018-12-12T04:22:18.756Z,-0.50
2018-12-12T04:24:49.148Z,-0.70
2018-12-12T04:27:19.148Z,-0.80
2018-12-12T04:29:49.269Z,-0.80
2018-12-12T04:32:20.207Z,-0.90
2018-12-12T04:34:50.063Z,-1.00
2018-12-12T04:37:20.017Z,-1.10
2018-12-12T04:39:52.572Z,-1.00
2018-12-12T04:42:22.364Z,-0.90
2018-12-12T04:44:52.201Z,-0.90
2018-12-12T04:47:22.123Z,-0.80
2018-12-12T04:49:52.106Z,-0.90
2018-12-12T04:52:21.968Z,-1.00
2018-12-12T04:54:52.037Z,-1.10
2018-12-12T04:57:21.836Z,-1.10
2018-12-12T04:59:51.788Z,-1.20
2018-12-12T05:02:27.625Z,-1.20
2018-12-12T05:04:58.047Z,-1.20
2018-12-12T05:07:27.862Z,-1.20
2018-12-12T05:09:57.667Z,-1.30
2018-12-12T05:12:27.482Z,-1.40
2018-12-12T05:14:57.495Z,-1.40
2018-12-12T05:17:27.283Z,-1.30
2018-12-12T05:19:57.134Z,-1.20
2018-12-12T05:22:27.016Z,-1.20
2018-12-12T05:24:57.052Z,-1.30
2018-12-12T05:27:26.926Z,-1.30
2018-12-12T05:30:03.115Z,-1.20
2018-12-12T05:32:33.051Z,-1.30
2018-12-12T05:35:02.952Z,-1.30
2018-12-12T05:37:32.797Z,-1.30
2018-12-12T05:40:02.837Z,-1.10
2018-12-12T05:42:32.810Z,-1.10
2018-12-12T05:45:02.741Z,-1.20
2018-12-12T05:47:32.622Z,-1.20
2018-12-12T05:50:02.513Z,-1.20
2018-12-12T05:52:32.311Z,-1.30
2018-12-12T05:55:02.202Z,-1.40
2018-12-12T05:57:32.137Z,-1.30
2018-12-12T06:00:01.943Z,-1.20
2018-12-12T06:02:31.731Z,-1.30
2018-12-12T06:05:01.686Z,-1.20
2018-12-12T06:07:31.452Z,-1.10
2018-12-12T06:10:01.462Z,-1.20
2018-12-12T06:12:31.222Z,-1.10
2018-12-12T06:15:01.207Z,-1.10
2018-12-12T06:17:30.943Z,-1.10
2018-12-12T06:20:01.188Z,-1.10
2018-12-12T06:22:37.352Z,-1.10
2018-12-12T06:25:03.151Z,-1.10
2018-12-12T06:27:33.194Z,-1.10
2018-12-12T06:30:03.322Z,-1.20
2018-12-12T06:32:33.092Z,-1.10
2018-12-12T06:35:02.977Z,-1.00
2018-12-12T06:37:32.827Z,-1.00
2018-12-12T06:40:02.912Z,-1.10
2018-12-12T06:42:32.752Z,-1.20
2018-12-12T06:45:02.595Z,-1.20
2018-12-12T06:47:33.012Z,-1.30
2018-12-12T06:50:03.288Z,-1.30
2018-12-12T06:52:33.537Z,-1.30
2018-12-12T06:55:03.897Z,-1.40
2018-12-12T06:57:33.998Z,-1.40
2018-12-12T07:00:04.211Z,-1.50
2018-12-12T07:02:34.127Z,-1.40
2018-12-12T07:05:04.234Z,-1.30
2018-12-12T07:07:34.356Z,-1.30
2018-12-12T07:10:04.237Z,-1.30
2018-12-12T07:12:34.256Z,-1.30
2018-12-12T07:15:04.337Z,-1.40
2018-12-12T07:17:34.612Z,-1.40
2018-12-12T07:20:04.533Z,-1.30
2018-12-12T07:22:34.586Z,-1.30
2018-12-12T07:25:05.481Z,-1.40
2018-12-12T07:27:35.812Z,-1.60
2018-12-12T07:30:06.926Z,-1.80
2018-12-12T07:32:36.786Z,-1.90
2018-12-12T07:35:06.789Z,-1.70
2018-12-12T07:37:36.617Z,-1.70
2018-12-12T07:40:07.212Z,-1.60
2018-12-12T07:42:37.101Z,-1.50
2018-12-12T07:45:06.977Z,-1.30
2018-12-12T07:47:36.711Z,-1.40
2018-12-12T07:50:07.159Z,-1.50
2018-12-12T07:52:37.312Z,-1.40
2018-12-12T07:55:07.442Z,-1.30
2018-12-12T07:57:37.522Z,-1.20
2018-12-12T08:00:08.647Z,-1.10
2018-12-12T08:02:38.532Z,-1.00
2018-12-12T08:05:08.887Z,-0.90
2018-12-12T08:07:39.087Z,-0.80
2018-12-12T08:10:08.959Z,-0.70
2018-12-12T08:12:39.137Z,-0.60
2018-12-12T08:15:09.021Z,-0.50
2018-12-12T08:17:39.054Z,-0.40
2018-12-12T08:20:09.082Z,-0.40
2018-12-12T08:22:39.287Z,-0.40
2018-12-12T08:25:09.187Z,-0.40
2018-12-12T08:27:39.469Z,-0.30
2018-12-12T08:30:09.371Z,-0.20
2018-12-12T08:32:39.137Z,-0.10
2018-12-12T08:35:08.913Z,0.10
2018-12-12T08:37:38.622Z,0.10
2018-12-12T08:40:09.534Z,0.20
2018-12-12T08:42:39.382Z,0.30
2018-12-12T08:45:09.558Z,0.50
2018-12-12T08:47:39.243Z,0.70
2018-12-12T08:50:09.682Z,0.90
2018-12-12T08:52:39.741Z,1.00
2018-12-12T08:55:09.762Z,1.10
2018-12-12T08:57:39.527Z,1.30
2018-12-12T09:00:09.702Z,1.30
2018-12-12T09:02:39.422Z,1.30
2018-12-12T09:05:09.192Z,1.50
2018-12-12T09:07:38.967Z,1.60
2018-12-12T09:10:09.212Z,1.70
2018-12-12T09:12:39.402Z,1.80
2018-12-12T09:15:09.833Z,1.90
2018-12-12T09:17:39.565Z,2.00
2018-12-12T09:20:10.467Z,2.00
2018-12-12T09:22:40.488Z,2.10
2018-12-12T09:25:10.459Z,2.20
2018-12-12T09:27:40.162Z,2.30
2018-12-12T09:30:10.326Z,2.40
2018-12-12T09:32:40.203Z,2.50
2018-12-12T09:35:10.077Z,2.70
2018-12-12T09:37:39.927Z,2.80
2018-12-12T09:40:09.603Z,3.00
2018-12-12T09:42:39.357Z,3.10
2018-12-12T09:45:09.127Z,3.20
2018-12-12T09:47:39.127Z,3.30
2018-12-12T09:50:09.462Z,3.50
2018-12-12T09:52:39.571Z,3.60
2018-12-12T09:55:09.246Z,3.70
2018-12-12T09:57:39.132Z,3.70
2018-12-12T10:00:09.962Z,3.90
2018-12-12T10:02:39.793Z,4.00
2018-12-12T10:05:09.797Z,4.00
2018-12-12T10:07:39.871Z,4.20
2018-12-12T10:10:10.287Z,4.30
2018-12-12T10:12:40.227Z,4.60
2018-12-12T10:15:10.309Z,4.80
2018-12-12T10:17:40.392Z,4.90
2018-12-12T10:20:10.137Z,5.00
2018-12-12T10:22:40.127Z,5.00
2018-12-12T10:25:10.126Z,5.00
2018-12-12T10:27:39.941Z,5.10
2018-12-12T10:30:10.076Z,5.00
2018-12-12T10:32:40.202Z,5.10
2018-12-12T10:35:09.976Z,5.00
2018-12-12T10:37:39.741Z,5.00
2018-12-12T10:40:09.553Z,5.10
2018-12-12T10:42:39.416Z,5.20
2018-12-12T10:45:09.171Z,5.40
2018-12-12T10:47:38.991Z,5.60
2018-12-12T10:50:10.452Z,5.70
2018-12-12T10:52:40.474Z,6.00
2018-12-12T10:55:10.537Z,6.10
2018-12-12T10:57:40.360Z,6.30
2018-12-12T11:00:12.945Z,6.30
2018-12-12T11:02:51.577Z,6.50
2018-12-12T11:05:21.643Z,6.50
2018-12-12T11:07:51.816Z,6.70
2018-12-12T11:10:21.767Z,6.80
2018-12-12T11:12:52.521Z,7.00
2018-12-12T11:15:22.552Z,7.10
2018-12-12T11:17:52.546Z,7.10
2018-12-12T11:20:22.636Z,7.30
2018-12-12T11:22:52.447Z,7.30
2018-12-12T11:25:22.317Z,7.30
2018-12-12T11:27:52.057Z,7.40
2018-12-12T11:30:22.607Z,7.50
2018-12-12T11:32:52.302Z,7.70
2018-12-12T11:35:22.152Z,7.70
2018-12-12T11:37:52.508Z,7.70
2018-12-12T11:40:22.642Z,7.70
2018-12-12T11:42:52.502Z,7.70
2018-12-12T11:45:22.572Z,7.60
2018-12-12T11:47:52.467Z,7.70
2018-12-12T11:50:22.587Z,7.80
2018-12-12T11:52:52.276Z,8.00
2018-12-12T11:55:22.271Z,8.10
2018-12-12T11:57:52.151Z,8.20
2018-12-12T12:00:21.942Z,8.30
2018-12-12T12:02:51.752Z,8.20
2018-12-12T12:05:22.486Z,8.20
2018-12-12T12:07:52.366Z,8.10
2018-12-12T12:10:22.212Z,8.00
2018-12-12T12:12:51.956Z,8.20
2018-12-12T12:15:21.940Z,8.20
2018-12-12T12:17:51.711Z,8.20
2018-12-12T12:20:21.736Z,8.30
2018-12-12T12:22:51.536Z,8.50
2018-12-12T12:25:21.318Z,8.30
2018-12-12T12:27:51.062Z,8.20
2018-12-12T12:30:21.076Z,8.20
2018-12-12T12:32:50.871Z,8.20
2018-12-12T12:35:20.841Z,8.50
2018-12-12T12:37:50.731Z,8.60
2018-12-12T12:40:20.707Z,8.70
2018-12-12T12:42:50.476Z,8.60
2018-12-12T12:45:20.377Z,8.40
2018-12-12T12:47:50.299Z,8.50
2018-12-12T12:50:20.266Z,8.80
2018-12-12T12:52:50.031Z,9.00
2018-12-12T12:55:20.126Z,8.90
2018-12-12T12:57:49.936Z,8.90
2018-12-12T13:00:19.772Z,9.10
2018-12-12T13:02:50.296Z,8.90
2018-12-12T13:05:20.674Z,9.10
2018-12-12T13:07:50.443Z,9.20
2018-12-12T13:10:20.567Z,9.20
2018-12-12T13:12:50.802Z,9.30
2018-12-12T13:15:20.922Z,9.20
2018-12-12T13:17:50.642Z,9.10
2018-12-12T13:20:20.563Z,9.20
2018-12-12T13:22:50.619Z,9.30
2018-12-12T13:25:20.527Z,9.20
2018-12-12T13:27:50.822Z,9.20
2018-12-12T13:30:20.609Z,8.90
2018-12-12T13:32:50.712Z,8.80
2018-12-12T13:35:20.653Z,8.80
2018-12-12T13:37:50.717Z,9.10
2018-12-12T13:40:20.858Z,9.40
2018-12-12T13:42:50.707Z,9.40
2018-12-12T13:45:20.753Z,9.40
2018-12-12T13:47:50.472Z,9.30
2018-12-12T13:50:20.488Z,9.40
2018-12-12T13:52:50.227Z,9.40
2018-12-12T13:55:20.332Z,9.00
2018-12-12T13:57:50.063Z,9.30
2018-12-12T14:00:19.908Z,9.10
2018-12-12T14:02:49.772Z,8.70
2018-12-12T14:05:19.858Z,8.60
2018-12-12T14:07:50.069Z,8.40
2018-12-12T14:10:19.833Z,8.40
2018-12-12T14:12:49.780Z,8.10
2018-12-12T14:15:19.863Z,7.70
2018-12-12T14:17:49.980Z,7.60
2018-12-12T14:20:19.908Z,7.90
2018-12-12T14:22:49.993Z,8.20
2018-12-12T14:25:19.953Z,8.20
2018-12-12T14:27:49.603Z,8.30
2018-12-12T14:30:19.773Z,8.40
2018-12-12T14:32:49.658Z,8.30
2018-12-12T14:35:20.123Z,8.50
2018-12-12T14:37:50.103Z,8.90
2018-12-12T14:40:19.883Z,9.10
2018-12-12T14:42:49.748Z,9.10
2018-12-12T14:45:20.068Z,9.10
2018-12-12T14:47:49.923Z,8.90
2018-12-12T14:50:20.449Z,8.90
2018-12-12T14:52:50.288Z,9.00
2018-12-12T14:55:20.673Z,8.80
2018-12-12T14:57:50.858Z,8.60
2018-12-12T15:00:20.783Z,8.50
2018-12-12T15:02:50.603Z,8.30
2018-12-12T15:05:21.246Z,8.00
2018-12-12T15:07:51.033Z,7.70
2018-12-12T15:10:21.026Z,7.40
2018-12-12T15:12:51.192Z,7.10
2018-12-12T15:15:21.108Z,6.90
2018-12-12T15:17:50.932Z,6.70
2018-12-12T15:20:20.947Z,6.60
2018-12-12T15:22:51.208Z,6.40
2018-12-12T15:25:21.183Z,6.30
2018-12-12T15:27:50.982Z,6.20
2018-12-12T15:30:20.843Z,6.10
2018-12-12T15:32:50.783Z,6.00
2018-12-12T15:35:20.842Z,5.90
2018-12-12T15:37:50.652Z,5.80
2018-12-12T15:40:20.452Z,5.70
2018-12-12T15:42:50.282Z,5.60
2018-12-12T15:45:20.258Z,5.50
2018-12-12T15:47:50.054Z,5.50
2018-12-12T15:50:20.042Z,5.40
2018-12-12T15:52:49.870Z,5.30
2018-12-12T15:55:19.708Z,5.20
2018-12-12T15:57:49.553Z,5.10
2018-12-12T16:00:19.529Z,5.00
2018-12-12T16:02:49.418Z,5.00
2018-12-12T16:05:19.253Z,4.90
2018-12-12T16:07:49.298Z,5.00
2018-12-12T16:10:19.362Z,4.90
2018-12-12T16:12:49.317Z,4.90
2018-12-12T16:15:19.749Z,4.90
2018-12-12T16:17:49.642Z,4.80
2018-12-12T16:20:19.523Z,4.80
2018-12-12T16:22:49.552Z,4.80
2018-12-12T16:25:19.253Z,4.80
2018-12-12T16:27:48.918Z,4.70
2018-12-12T16:30:18.958Z,4.70
2018-12-12T16:32:49.003Z,4.70
2018-12-12T16:35:19.089Z,4.50
2018-12-12T16:37:48.858Z,4.30
2018-12-12T16:40:19.058Z,4.30
2018-12-12T16:42:49.003Z,4.30
2018-12-12T16:45:19.228Z,4.30
2018-12-12T16:47:49.318Z,4.30
2018-12-12T16:50:21.448Z,4.20
2018-12-12T16:52:51.318Z,4.30
2018-12-12T16:55:24.602Z,4.20
2018-12-12T16:57:54.923Z,4.20
2018-12-12T17:00:25.223Z,4.10
2018-12-12T17:02:55.082Z,4.10
2018-12-12T17:05:25.028Z,4.00
2018-12-12T17:07:55.052Z,4.00
2018-12-12T17:10:24.907Z,4.00
2018-12-12T17:12:55.164Z,4.00
2018-12-12T17:15:25.313Z,3.90
2018-12-12T17:17:55.447Z,3.90
2018-12-12T17:20:25.403Z,3.90
2018-12-12T17:22:55.348Z,3.80
2018-12-12T17:25:25.478Z,3.60
2018-12-12T17:27:55.358Z,3.60
2018-12-12T17:30:26.218Z,3.60
2018-12-12T17:32:56.653Z,3.60
2018-12-12T17:35:26.983Z,3.60
2018-12-12T17:37:57.177Z,3.60
2018-12-12T17:40:27.297Z,3.50
2018-12-12T17:42:57.383Z,3.60
2018-12-12T17:45:27.583Z,3.60
2018-12-12T17:47:57.698Z,3.60
2018-12-12T17:50:28.364Z,3.60
2018-12-12T17:52:58.876Z,3.50
2018-12-12T17:55:29.397Z,3.50
2018-12-12T17:57:59.728Z,3.50
2018-12-12T18:00:29.713Z,3.50
2018-12-12T18:02:59.983Z,3.50
2018-12-12T18:05:30.849Z,3.60
2018-12-12T18:08:00.768Z,3.60
2018-12-12T18:10:31.016Z,3.60
2018-12-12T18:13:01.330Z,3.60
2018-12-12T18:15:31.443Z,3.60
2018-12-12T18:18:01.608Z,3.50
2018-12-12T18:20:31.879Z,3.50
2018-12-12T18:23:01.679Z,3.40
2018-12-12T18:25:34.527Z,3.40
2018-12-12T18:28:04.459Z,3.40
2018-12-12T18:30:34.634Z,3.40
2018-12-12T18:33:04.533Z,3.40
2018-12-12T18:35:34.573Z,3.40
2018-12-12T18:38:04.603Z,3.30
2018-12-12T18:40:34.673Z,3.40
2018-12-12T18:43:04.603Z,3.40
2018-12-12T18:45:34.898Z,3.40
2018-12-12T18:48:05.069Z,3.40
2018-12-12T18:50:35.219Z,3.30
2018-12-12T18:53:05.522Z,3.30
2018-12-12T18:55:35.647Z,3.30
2018-12-12T18:58:05.833Z,3.30
2018-12-12T19:00:36.067Z,3.30
2018-12-12T19:03:05.992Z,3.30
2018-12-12T19:05:36.143Z,3.30
2018-12-12T19:08:06.478Z,3.30
2018-12-12T19:10:36.383Z,3.30
2018-12-12T19:13:06.393Z,3.30
2018-12-12T19:15:36.292Z,3.30
2018-12-12T19:18:06.488Z,3.40
2018-12-12T19:20:36.643Z,3.40
2018-12-12T19:23:07.143Z,3.40
2018-12-12T19:25:37.528Z,3.30
2018-12-12T19:28:07.889Z,3.20
2018-12-12T19:30:38.618Z,3.20
2018-12-12T19:33:11.868Z,3.20
2018-12-12T19:35:42.609Z,3.20
2018-12-12T19:38:13.453Z,3.30
2018-12-12T19:40:43.443Z,3.30
2018-12-12T19:43:13.758Z,3.30
2018-12-12T19:45:43.748Z,3.20
2018-12-12T19:48:13.879Z,3.30
2018-12-12T19:50:43.964Z,3.20
2018-12-12T19:53:14.548Z,3.20
2018-12-12T19:55:45.049Z,3.20
2018-12-12T19:58:15.362Z,3.20
2018-12-12T20:00:45.718Z,3.20
2018-12-12T20:03:15.737Z,3.00
2018-12-12T20:13:33.059Z,3.00
2018-12-12T20:16:04.161Z,2.80
2018-12-12T20:18:35.105Z,2.70
2018-12-12T20:21:05.328Z,2.70
2018-12-12T20:23:35.362Z,2.70
2018-12-12T20:26:05.528Z,2.80
2018-12-12T20:28:35.783Z,2.90
2018-12-12T20:31:07.127Z,2.90
2018-12-12T20:33:38.643Z,2.90
2018-12-12T20:36:12.519Z,2.90
2018-12-12T20:38:49.113Z,2.90
2018-12-12T20:41:23.813Z,2.90
2018-12-12T20:43:57.036Z,2.90
2018-12-12T20:46:32.199Z,2.80
2018-12-12T20:49:04.609Z,2.80
2018-12-12T20:51:40.298Z,2.80
2018-12-12T20:54:14.319Z,2.80
2018-12-12T20:56:53.006Z,2.80
2018-12-12T20:59:29.925Z,2.80
2018-12-12T21:02:06.769Z,2.70
2018-12-12T21:04:41.314Z,2.70
2018-12-12T21:07:15.868Z,2.60
2018-12-12T21:09:52.344Z,2.70
2018-12-12T21:12:27.378Z,2.70
2018-12-12T21:14:58.573Z,2.70
2018-12-12T21:17:33.298Z,2.70
2018-12-12T21:20:12.144Z,2.70
2018-12-12T21:22:46.408Z,2.60
2018-12-12T21:25:20.323Z,2.60
2018-12-12T21:27:55.833Z,2.60
2018-12-12T21:30:33.023Z,2.50
2018-12-12T21:33:07.199Z,2.40
2018-12-12T21:35:40.568Z,2.40
2018-12-12T21:38:12.378Z,2.40
2018-12-12T21:40:44.418Z,2.30
2018-12-12T21:43:16.373Z,2.10
2018-12-12T21:45:47.543Z,2.10
2018-12-12T21:48:17.448Z,2.10
2018-12-12T21:50:48.060Z,2.00
2018-12-12T21:53:21.543Z,1.90
2018-12-12T21:55:54.583Z,1.80
2018-12-12T21:58:24.523Z,1.80
2018-12-12T22:00:54.810Z,1.70
2018-12-12T22:03:24.948Z,1.80
2018-12-12T22:05:55.448Z,1.80
2018-12-12T22:08:25.363Z,1.90
2018-12-12T22:10:56.002Z,1.90
2018-12-12T22:13:25.940Z,2.00
2018-12-12T22:15:56.258Z,2.10
2018-12-12T22:18:26.137Z,2.10
2018-12-12T22:20:56.113Z,2.10
2018-12-12T22:23:26.088Z,2.00
2018-12-12T22:25:55.933Z,1.90
2018-12-12T22:28:25.952Z,1.90
2018-12-12T22:30:55.983Z,2.00
2018-12-12T22:33:25.978Z,2.00
2018-12-12T22:35:56.143Z,1.90
2018-12-12T22:38:26.267Z,1.90
2018-12-12T22:40:56.168Z,1.80
2018-12-12T22:43:26.127Z,1.80
2018-12-12T22:45:56.200Z,1.80
2018-12-12T22:48:26.667Z,1.80
2018-12-12T22:50:56.647Z,1.80
2018-12-12T22:53:26.533Z,1.70
2018-12-12T22:55:56.380Z,1.80
2018-12-12T22:58:26.637Z,1.80
2018-12-12T23:01:02.632Z,1.90
2018-12-12T23:03:33.367Z,2.00
2018-12-12T23:06:03.332Z,2.10
2018-12-12T23:08:34.011Z,2.00
2018-12-12T23:11:03.804Z,2.10
2018-12-12T23:13:34.157Z,2.20
2018-12-12T23:16:04.087Z,2.10
2018-12-12T23:18:34.007Z,2.00
2018-12-12T23:21:04.763Z,1.90
2018-12-12T23:23:34.766Z,1.80
2018-12-12T23:26:05.116Z,1.80
2018-12-12T23:28:35.009Z,1.90
2018-12-12T23:31:05.152Z,2.00
2018-12-12T23:33:35.046Z,2.00
2018-12-12T23:36:06.274Z,2.10
2018-12-12T23:38:36.332Z,2.10
2018-12-12T23:41:06.791Z,2.20
2018-12-12T23:43:42.756Z,2.20
2018-12-12T23:46:12.631Z,2.10
2018-12-12T23:48:42.351Z,2.20
2018-12-12T23:51:12.794Z,2.20
2018-12-12T23:53:42.751Z,2.30
2018-12-12T23:56:12.566Z,2.30
2018-12-12T23:58:42.367Z,2.30
